Time;durP1;ratioP1;P1;durP2;ratioP2;P2;SDS_P1;SDS_P2;PMS_P1;PMS_P2;Temp;Humidity;BMP_temperature;BMP_pressure;BME280_temperature;BME280_humidity;BME280_pressure;Samples;Min_cycle;Max_cycle;Signal;HPM_P1;HPM_P2
2022/11/15 00:01:48;;;;;;;40.25;22.13;;;9.90;99.90;;;;;;5110689;28;20062;-69
2022/11/15 00:04:14;;;;;;;35.78;21.38;;;9.90;99.90;;;;;;5089983;28;20019;-73
2022/11/15 00:06:40;;;;;;;38.85;21.42;;;9.90;99.90;;;;;;5099915;27;20027;-68
2022/11/15 00:09:06;;;;;;;38.50;21.60;;;9.90;99.90;;;;;;5110064;28;20059;-68
2022/11/15 00:11:31;;;;;;;44.92;23.58;;;9.90;99.90;;;;;;5094191;28;20034;-68
2022/11/15 00:13:58;;;;;;;45.70;26.05;;;9.90;99.90;;;;;;5109958;28;20484;-68
2022/11/15 00:16:24;;;;;;;43.97;24.75;;;10.00;99.90;;;;;;5112332;28;20073;-68
2022/11/15 00:18:51;;;;;;;47.35;25.20;;;10.20;99.90;;;;;;5106904;28;20421;-69
2022/11/15 00:21:17;;;;;;;47.17;26.00;;;10.20;99.90;;;;;;5104452;28;20468;-68
2022/11/15 00:23:43;;;;;;;48.47;26.35;;;10.30;99.90;;;;;;5107296;28;20023;-68
2022/11/15 00:26:13;;;;;;;57.03;29.05;;;10.40;99.90;;;;;;5105528;28;21013;-68
2022/11/15 00:28:39;;;;;;;61.63;31.27;;;10.40;99.90;;;;;;5105850;28;20063;-68
2022/11/15 00:31:14;;;;;;;51.72;27.83;;;10.60;99.90;;;;;;5106038;28;20016;-69
2022/11/15 00:33:39;;;;;;;61.97;32.20;;;10.60;99.90;;;;;;5109926;28;20050;-68
2022/11/15 00:36:11;;;;;;;67.15;32.85;;;10.70;99.90;;;;;;5108269;28;20111;-68
2022/11/15 00:38:39;;;;;;;62.03;35.08;;;10.80;99.90;;;;;;5107474;28;20035;-69
2022/11/15 00:41:06;;;;;;;59.55;31.83;;;10.80;99.90;;;;;;5107754;27;20499;-68
2022/11/15 00:43:32;;;;;;;74.18;34.30;;;10.90;99.90;;;;;;5101744;28;20043;-68
2022/11/15 00:45:58;;;;;;;66.35;35.33;;;11.00;99.90;;;;;;5109082;28;20942;-68
2022/11/15 00:48:24;;;;;;;59.83;30.20;;;11.00;99.90;;;;;;5108256;28;20101;-69
2022/11/15 00:50:50;;;;;;;65.97;33.15;;;11.10;99.90;;;;;;5112408;28;20046;-68
2022/11/15 00:53:16;;;;;;;66.72;33.90;;;11.10;99.90;;;;;;5092594;28;20040;-69
2022/11/15 00:55:42;;;;;;;64.38;33.47;;;11.20;99.90;;;;;;5102382;28;20048;-71
2022/11/15 00:58:08;;;;;;;61.60;34.22;;;11.30;99.90;;;;;;5110304;28;20024;-75
2022/11/15 01:00:34;;;;;;;68.07;33.65;;;11.30;99.90;;;;;;5089440;28;20041;-69
2022/11/15 01:03:02;;;;;;;59.45;33.03;;;11.20;99.90;;;;;;5112379;28;20098;-68
2022/11/15 01:05:29;;;;;;;69.72;34.80;;;11.30;99.90;;;;;;5113637;28;20015;-68
2022/11/15 01:07:56;;;;;;;66.97;34.38;;;11.30;99.90;;;;;;5107846;28;20027;-69
2022/11/15 01:10:23;;;;;;;61.53;31.48;;;11.30;99.90;;;;;;5106606;28;20357;-70
2022/11/15 01:12:49;;;;;;;59.13;29.67;;;11.40;99.90;;;;;;5107166;28;20031;-69
2022/11/15 01:15:15;;;;;;;63.95;32.50;;;11.40;99.90;;;;;;5105069;28;20624;-69
2022/11/15 01:17:40;;;;;;;63.78;31.15;;;11.40;99.90;;;;;;5109633;28;20027;-69
2022/11/15 01:20:07;;;;;;;57.30;31.88;;;11.50;99.90;;;;;;5095510;28;20052;-70
2022/11/15 01:22:32;;;;;;;63.00;34.15;;;11.50;99.90;;;;;;5104461;28;20016;-68
2022/11/15 01:24:58;;;;;;;56.42;31.73;;;11.50;99.90;;;;;;5108928;28;20518;-74
2022/11/15 01:27:24;;;;;;;53.38;30.75;;;11.50;99.90;;;;;;5111972;28;20030;-77
2022/11/15 01:29:49;;;;;;;64.88;31.80;;;11.60;99.90;;;;;;5111469;28;20385;-70
2022/11/15 01:32:15;;;;;;;62.63;32.85;;;11.60;99.90;;;;;;5109601;28;20298;-68
2022/11/15 01:34:41;;;;;;;80.22;36.70;;;11.60;99.90;;;;;;5110071;28;20372;-77
2022/11/15 01:37:07;;;;;;;66.90;34.63;;;11.60;99.90;;;;;;5103586;27;20024;-70
2022/11/15 01:39:32;;;;;;;62.08;32.40;;;11.60;99.90;;;;;;5112157;28;20055;-69
2022/11/15 01:41:58;;;;;;;62.05;33.08;;;11.60;99.90;;;;;;5106645;27;20102;-68
2022/11/15 01:44:53;;;;;;;65.63;32.15;;;11.70;99.90;;;;;;5110350;28;20082;-75
2022/11/15 01:47:41;;;;;;;67.50;34.50;;;11.70;99.90;;;;;;5102190;28;20077;-69
2022/11/15 01:50:17;;;;;;;70.30;35.53;;;11.80;99.90;;;;;;5103307;28;20039;-68
2022/11/15 01:52:43;;;;;;;70.78;35.85;;;11.80;99.90;;;;;;5109573;28;20016;-69
2022/11/15 01:55:20;;;;;;;73.28;34.33;;;11.80;99.90;;;;;;5091646;28;20529;-70
2022/11/15 01:57:50;;;;;;;64.43;33.33;;;11.80;99.90;;;;;;5099045;28;20024;-69
2022/11/15 02:00:16;;;;;;;64.05;33.53;;;11.80;99.90;;;;;;5105801;28;20384;-69
2022/11/15 02:02:42;;;;;;;62.67;32.92;;;11.80;99.90;;;;;;5105135;28;20268;-69
2022/11/15 02:05:08;;;;;;;64.10;32.30;;;11.80;99.90;;;;;;5106696;28;20098;-69
2022/11/15 02:07:35;;;;;;;60.33;32.00;;;11.80;99.90;;;;;;5103095;28;20102;-68
2022/11/15 02:10:12;;;;;;;71.03;35.13;;;11.80;99.90;;;;;;5106228;28;20545;-69
2022/11/15 02:12:38;;;;;;;65.82;33.90;;;11.80;99.90;;;;;;5103187;28;20019;-69
2022/11/15 02:15:06;;;;;;;67.05;33.40;;;11.90;99.90;;;;;;5092123;28;20428;-69
2022/11/15 02:17:38;;;;;;;67.07;34.70;;;11.90;99.90;;;;;;5105999;28;20023;-69
2022/11/15 02:20:38;;;;;;;65.47;32.58;;;12.00;99.90;;;;;;5100528;28;20040;-69
2022/11/15 02:23:26;;;;;;;57.85;31.08;;;11.90;99.90;;;;;;5087958;28;20129;-69
2022/11/15 02:26:24;;;;;;;62.80;32.83;;;12.00;99.90;;;;;;5106432;28;20441;-69
2022/11/15 02:29:19;;;;;;;58.08;30.63;;;12.00;99.90;;;;;;5079306;28;20024;-69
2022/11/15 02:32:06;;;;;;;60.42;33.63;;;12.10;99.90;;;;;;5106613;28;20106;-69
2022/11/15 02:34:50;;;;;;;57.65;30.50;;;12.10;99.90;;;;;;5105695;28;20054;-69
2022/11/15 02:37:20;;;;;;;59.65;28.75;;;12.20;99.90;;;;;;5085088;28;20074;-70
2022/11/15 02:39:57;;;;;;;54.35;30.25;;;12.20;99.90;;;;;;5108022;28;20480;-69
2022/11/15 02:45:30;;;;;;;65.75;33.10;;;12.20;99.90;;;;;;5104576;28;20571;-70
2022/11/15 02:47:59;;;;;;;56.00;28.50;;;12.20;99.90;;;;;;5104326;28;20050;-69
2022/11/15 02:50:31;;;;;;;53.88;28.98;;;12.20;99.90;;;;;;5090363;28;20476;-69
2022/11/15 02:52:57;;;;;;;61.00;30.23;;;12.20;99.90;;;;;;5103234;28;20098;-70
2022/11/15 02:55:38;;;;;;;56.30;31.38;;;12.30;99.90;;;;;;5104649;28;20412;-69
2022/11/15 02:58:21;;;;;;;55.13;30.45;;;12.30;99.90;;;;;;5107215;28;20031;-69
2022/11/15 03:01:00;;;;;;;52.03;30.00;;;12.30;99.90;;;;;;5104780;28;20023;-69
2022/11/15 03:03:44;;;;;;;60.63;30.88;;;12.30;99.90;;;;;;5105564;28;20024;-70
2022/11/15 03:06:35;;;;;;;57.85;30.02;;;12.30;99.90;;;;;;5101771;28;20020;-69
2022/11/15 03:09:17;;;;;;;60.33;32.88;;;12.30;99.90;;;;;;5100556;28;20036;-70
2022/11/15 03:11:48;;;;;;;56.42;31.98;;;12.30;99.90;;;;;;5101374;28;20012;-70
2022/11/15 03:14:35;;;;;;;55.88;32.60;;;12.30;99.90;;;;;;5102082;28;20031;-69
2022/11/15 03:17:03;;;;;;;61.72;32.35;;;12.40;99.90;;;;;;5101249;28;20694;-69
2022/11/15 03:19:47;;;;;;;56.03;30.90;;;12.40;99.90;;;;;;5090591;28;20062;-69
2022/11/15 03:22:20;;;;;;;57.00;30.73;;;12.40;99.90;;;;;;5100890;28;20039;-69
2022/11/15 03:24:50;;;;;;;59.88;31.80;;;12.50;99.90;;;;;;5106379;28;20027;-70
2022/11/15 03:27:20;;;;;;;64.07;31.85;;;12.40;99.90;;;;;;5111983;28;20062;-70
2022/11/15 03:29:59;;;;;;;65.50;32.58;;;12.50;99.90;;;;;;5105300;28;20015;-69
2022/11/15 03:32:38;;;;;;;67.45;32.63;;;12.50;99.90;;;;;;5100600;28;20067;-69
2022/11/15 03:35:26;;;;;;;50.22;26.95;;;12.60;99.90;;;;;;5105589;28;20032;-69
2022/11/15 03:37:54;;;;;;;53.70;27.92;;;12.50;99.90;;;;;;5108432;28;20023;-69
2022/11/15 03:40:29;;;;;;;55.67;28.42;;;12.50;99.90;;;;;;5099683;28;20027;-70
2022/11/15 03:43:00;;;;;;;50.75;27.10;;;12.60;99.90;;;;;;5108370;28;20012;-70
2022/11/15 03:45:32;;;;;;;55.15;28.55;;;12.60;99.90;;;;;;5102494;28;20480;-70
2022/11/15 03:48:21;;;;;;;62.03;30.58;;;12.70;99.90;;;;;;5102901;28;20055;-70
2022/11/15 03:50:47;;;;;;;62.55;31.02;;;12.60;99.90;;;;;;5102537;28;20067;-70
2022/11/15 03:53:14;;;;;;;60.85;30.88;;;12.60;99.90;;;;;;5101737;28;20032;-70
2022/11/15 03:55:39;;;;;;;48.85;27.83;;;12.60;99.90;;;;;;5096782;28;20060;-70
2022/11/15 03:58:06;;;;;;;62.90;30.75;;;12.60;99.90;;;;;;5102809;28;20506;-70
2022/11/15 04:00:31;;;;;;;72.95;34.85;;;12.60;99.90;;;;;;5107098;28;20028;-70
2022/11/15 04:02:57;;;;;;;60.28;30.77;;;12.60;99.90;;;;;;5100991;28;20387;-70
2022/11/15 04:05:23;;;;;;;60.92;31.05;;;12.60;99.90;;;;;;5100658;28;20036;-69
2022/11/15 04:07:48;;;;;;;59.17;29.83;;;12.60;99.90;;;;;;5106061;28;20023;-70
2022/11/15 04:10:14;;;;;;;63.08;32.63;;;12.60;99.90;;;;;;5102042;28;20036;-70
2022/11/15 04:12:43;;;;;;;59.38;33.75;;;12.60;99.90;;;;;;5106578;28;20024;-69
2022/11/15 04:15:09;;;;;;;66.00;35.35;;;12.70;99.90;;;;;;5104868;28;20051;-69
2022/11/15 04:17:40;;;;;;;64.30;31.40;;;12.70;99.90;;;;;;5100755;28;20028;-69
2022/11/15 04:25:51;;;;;;;68.40;33.80;;;12.70;99.90;;;;;;5104639;28;20446;-69
2022/11/15 04:28:17;;;;;;;75.78;36.60;;;12.70;99.90;;;;;;5113629;28;20019;-69
2022/11/15 04:30:43;;;;;;;61.42;33.70;;;12.70;99.90;;;;;;5088508;28;20028;-69
2022/11/15 04:33:09;;;;;;;76.65;35.70;;;12.70;99.90;;;;;;5108271;28;20023;-69
2022/11/15 04:35:34;;;;;;;62.88;29.60;;;12.70;99.90;;;;;;5107829;28;20032;-69
2022/11/15 04:38:01;;;;;;;64.32;33.50;;;12.60;99.90;;;;;;5110407;28;20065;-69
2022/11/15 04:40:27;;;;;;;75.13;34.92;;;12.60;99.90;;;;;;5107041;28;20043;-69
2022/11/15 04:42:53;;;;;;;65.07;33.05;;;12.60;99.90;;;;;;5105357;28;20020;-69
2022/11/15 04:45:19;;;;;;;70.10;32.97;;;12.70;99.90;;;;;;5101695;28;20111;-69
2022/11/15 04:47:45;;;;;;;68.28;34.03;;;12.70;99.90;;;;;;5104125;28;20098;-69
2022/11/15 04:50:13;;;;;;;71.03;33.97;;;12.70;99.90;;;;;;5111674;28;20154;-69
2022/11/15 04:52:41;;;;;;;66.82;34.30;;;12.70;99.90;;;;;;5111020;28;20072;-70
2022/11/15 04:55:06;;;;;;;75.05;34.15;;;12.70;99.90;;;;;;5104264;28;20184;-70
2022/11/15 04:57:32;;;;;;;72.68;32.78;;;12.70;99.90;;;;;;5103733;28;20547;-69
2022/11/15 04:59:58;;;;;;;88.05;35.63;;;12.70;99.90;;;;;;5102629;28;20030;-69
2022/11/15 05:02:23;;;;;;;80.97;34.75;;;12.70;99.90;;;;;;5110356;28;20176;-70
2022/11/15 05:04:49;;;;;;;81.82;33.90;;;12.80;99.90;;;;;;5108127;28;20040;-69
2022/11/15 05:07:15;;;;;;;84.40;36.10;;;12.80;99.90;;;;;;5103777;28;20023;-70
2022/11/15 05:09:40;;;;;;;101.47;37.50;;;12.80;99.90;;;;;;5107381;27;20032;-70
2022/11/15 05:12:06;;;;;;;77.47;32.97;;;12.80;99.90;;;;;;5102898;28;20020;-69
2022/11/15 05:14:31;;;;;;;104.90;36.90;;;12.80;99.90;;;;;;5107197;28;20048;-70
2022/11/15 05:16:57;;;;;;;98.93;37.47;;;12.70;99.90;;;;;;5110239;28;20016;-70
2022/11/15 05:19:23;;;;;;;96.38;39.80;;;12.70;99.90;;;;;;5089152;28;20373;-70
2022/11/15 05:21:48;;;;;;;74.20;32.78;;;12.70;99.90;;;;;;5101902;27;20023;-70
2022/11/15 05:24:14;;;;;;;79.13;35.20;;;12.80;99.90;;;;;;5103440;28;20031;-70
2022/11/15 05:26:40;;;;;;;140.13;44.60;;;12.70;99.90;;;;;;5100863;27;20042;-70
2022/11/15 05:29:05;;;;;;;110.32;40.53;;;12.80;99.90;;;;;;5108162;28;20387;-70
2022/11/15 05:31:31;;;;;;;119.20;40.78;;;12.80;99.90;;;;;;5103845;28;20633;-70
2022/11/15 05:33:59;;;;;;;130.00;41.53;;;12.80;99.90;;;;;;5108363;28;20036;-70
2022/11/15 05:36:45;;;;;;;102.47;38.28;;;12.80;99.90;;;;;;5103662;28;20020;-69
2022/11/15 05:39:11;;;;;;;74.35;34.95;;;12.70;99.90;;;;;;5107363;28;20081;-69
2022/11/15 05:41:45;;;;;;;55.78;29.10;;;12.60;99.90;;;;;;5107405;28;20016;-70
2022/11/15 05:44:15;;;;;;;67.15;31.55;;;12.60;99.90;;;;;;5101804;28;20031;-70
2022/11/15 05:46:41;;;;;;;79.78;35.15;;;12.60;99.90;;;;;;5109357;28;20111;-70
2022/11/15 05:49:12;;;;;;;61.45;28.73;;;12.70;99.90;;;;;;5100283;28;20027;-70
2022/11/15 05:51:38;;;;;;;45.47;24.60;;;12.70;99.90;;;;;;5104371;28;20020;-70
2022/11/15 05:54:04;;;;;;;43.58;23.48;;;12.70;99.90;;;;;;5106183;28;20502;-70
2022/11/15 05:56:30;;;;;;;53.85;24.75;;;12.70;99.90;;;;;;5102400;27;20055;-70
2022/11/15 05:58:57;;;;;;;49.85;23.40;;;12.70;99.90;;;;;;5102920;28;20085;-70
2022/11/15 06:01:24;;;;;;;45.50;22.40;;;12.70;99.90;;;;;;5103263;28;20506;-70
2022/11/15 06:03:50;;;;;;;35.28;19.50;;;12.70;99.90;;;;;;5107461;28;20107;-70
2022/11/15 06:06:16;;;;;;;41.45;21.98;;;12.70;99.90;;;;;;5104423;27;20119;-70
2022/11/15 06:08:41;;;;;;;35.45;18.60;;;12.60;99.90;;;;;;5085895;28;20504;-70
2022/11/15 06:11:07;;;;;;;36.83;17.60;;;12.50;99.90;;;;;;5110284;28;20020;-70
2022/11/15 06:13:33;;;;;;;39.88;20.02;;;12.50;99.90;;;;;;5102893;28;20028;-70
2022/11/15 06:16:00;;;;;;;37.28;17.85;;;12.50;99.90;;;;;;5108993;28;20035;-70
2022/11/15 06:18:26;;;;;;;33.88;17.08;;;12.50;99.90;;;;;;5089005;28;20020;-71
2022/11/15 06:20:51;;;;;;;37.67;18.27;;;12.50;99.90;;;;;;5106587;28;20092;-70
2022/11/15 06:23:17;;;;;;;40.45;17.50;;;12.40;99.90;;;;;;5099810;28;20558;-70
2022/11/15 06:25:43;;;;;;;33.80;16.58;;;12.40;99.90;;;;;;5103345;28;20475;-70
2022/11/15 06:28:08;;;;;;;41.72;19.50;;;12.30;99.90;;;;;;5097731;28;20115;-72
2022/11/15 06:30:34;;;;;;;47.00;20.25;;;12.40;99.90;;;;;;5099776;28;20020;-70
2022/11/15 06:33:05;;;;;;;37.80;18.52;;;12.50;99.90;;;;;;5105015;28;20035;-70
2022/11/15 06:35:34;;;;;;;40.80;18.95;;;12.50;99.90;;;;;;5108386;28;20027;-71
2022/11/15 06:38:08;;;;;;;52.75;19.85;;;12.50;99.90;;;;;;5100493;27;20019;-70
2022/11/15 06:40:35;;;;;;;33.30;17.80;;;12.50;99.90;;;;;;5103478;28;20039;-70
2022/11/15 06:43:02;;;;;;;49.95;19.17;;;12.40;99.90;;;;;;5089875;28;20035;-70
2022/11/15 06:45:28;;;;;;;40.90;18.63;;;12.40;99.90;;;;;;5101065;28;20031;-70
2022/11/15 06:47:53;;;;;;;42.20;18.77;;;12.40;99.90;;;;;;5086312;28;20160;-70
2022/11/15 06:50:19;;;;;;;52.03;19.58;;;12.40;99.90;;;;;;5109332;28;20412;-70
2022/11/15 06:52:45;;;;;;;47.03;19.42;;;12.30;99.90;;;;;;5110503;28;20110;-70
2022/11/15 06:55:10;;;;;;;29.20;15.43;;;12.30;99.90;;;;;;5104337;28;20043;-70
2022/11/15 06:57:36;;;;;;;52.40;21.38;;;12.30;99.90;;;;;;5108371;28;20027;-70
2022/11/15 07:00:04;;;;;;;38.47;18.33;;;12.30;99.90;;;;;;5109219;28;20383;-71
2022/11/15 07:02:30;;;;;;;41.25;19.67;;;12.30;99.90;;;;;;5100771;28;20020;-72
2022/11/15 07:04:56;;;;;;;39.63;19.83;;;12.30;99.90;;;;;;5103623;28;20059;-72
2022/11/15 07:07:22;;;;;;;46.17;21.70;;;12.30;99.90;;;;;;5109127;28;20493;-71
2022/11/15 07:09:47;;;;;;;42.25;19.95;;;12.30;99.90;;;;;;5104932;28;20154;-71
2022/11/15 07:12:13;;;;;;;47.70;22.77;;;12.30;99.90;;;;;;5106423;28;20099;-71
2022/11/15 07:14:39;;;;;;;37.30;19.70;;;12.30;99.90;;;;;;5105746;28;20126;-71
2022/11/15 07:17:05;;;;;;;60.63;23.52;;;12.20;99.90;;;;;;5108455;28;20035;-70
2022/11/15 07:19:31;;;;;;;32.85;17.27;;;12.20;99.90;;;;;;5097962;28;20040;-72
2022/11/15 07:21:56;;;;;;;43.65;21.67;;;12.20;99.90;;;;;;5109283;28;20069;-72
2022/11/15 07:24:22;;;;;;;35.97;19.80;;;12.20;99.90;;;;;;5099154;28;20031;-71
2022/11/15 07:26:47;;;;;;;38.90;19.77;;;12.10;99.90;;;;;;5108977;28;20073;-71
2022/11/15 07:29:13;;;;;;;37.85;19.58;;;12.10;99.90;;;;;;5100432;28;20028;-70
2022/11/15 07:31:39;;;;;;;42.55;19.20;;;12.10;99.90;;;;;;5103836;28;20384;-71
2022/11/15 07:34:04;;;;;;;34.95;18.13;;;12.10;99.90;;;;;;5105948;28;20110;-71
2022/11/15 07:36:30;;;;;;;38.35;16.67;;;12.00;99.90;;;;;;5089148;28;20043;-69
2022/11/15 07:38:55;;;;;;;31.42;16.73;;;12.00;99.90;;;;;;5103530;28;20038;-70
2022/11/15 07:41:21;;;;;;;37.75;17.42;;;12.00;99.90;;;;;;5107806;28;20027;-69
2022/11/15 07:43:47;;;;;;;31.45;17.90;;;12.00;99.90;;;;;;5101218;28;20024;-69
2022/11/15 07:46:12;;;;;;;35.10;17.33;;;12.00;99.90;;;;;;5110225;28;20127;-69
2022/11/15 07:48:40;;;;;;;17.08;11.38;;;12.00;99.90;;;;;;5087933;28;20028;-70
2022/11/15 07:51:06;;;;;;;41.28;18.33;;;12.00;99.90;;;;;;5108042;28;20020;-70
2022/11/15 07:53:32;;;;;;;31.58;16.38;;;12.00;99.90;;;;;;5104403;28;20028;-70
2022/11/15 07:55:57;;;;;;;32.22;15.65;;;12.00;99.90;;;;;;5107179;28;20028;-69
2022/11/15 07:58:23;;;;;;;24.05;13.63;;;12.00;99.90;;;;;;5110915;28;20036;-70
2022/11/15 08:00:48;;;;;;;29.02;14.70;;;11.90;99.90;;;;;;5110252;28;20036;-69
2022/11/15 08:03:16;;;;;;;26.88;13.65;;;11.90;99.90;;;;;;5100949;28;20066;-70
2022/11/15 08:05:43;;;;;;;23.70;12.77;;;11.90;99.90;;;;;;5104853;28;20057;-70
2022/11/15 08:08:11;;;;;;;27.63;13.25;;;11.90;99.90;;;;;;5107861;28;20012;-70
2022/11/15 08:10:37;;;;;;;17.65;11.43;;;11.90;99.90;;;;;;5102328;28;20055;-70
2022/11/15 08:13:08;;;;;;;20.27;12.23;;;11.90;99.90;;;;;;5108777;28;20108;-71
2022/11/15 08:15:35;;;;;;;25.42;13.52;;;11.80;99.90;;;;;;5109043;28;20137;-70
2022/11/15 08:18:06;;;;;;;33.45;14.48;;;11.80;99.90;;;;;;5111684;28;20034;-70
2022/11/15 08:20:33;;;;;;;24.02;12.85;;;11.80;99.90;;;;;;5094160;28;20027;-71
2022/11/15 08:23:02;;;;;;;26.00;13.40;;;11.80;99.90;;;;;;5108624;27;20034;-71
2022/11/15 08:25:31;;;;;;;19.52;11.82;;;11.90;99.90;;;;;;5104223;28;20044;-71
2022/11/15 08:27:58;;;;;;;18.23;12.00;;;11.90;99.90;;;;;;5107110;28;20243;-71
2022/11/15 08:30:25;;;;;;;21.52;12.63;;;11.90;99.90;;;;;;5106298;27;20042;-70
2022/11/15 08:32:51;;;;;;;19.67;11.88;;;11.90;99.90;;;;;;5109110;28;20081;-70
2022/11/15 08:35:18;;;;;;;21.80;11.90;;;12.00;99.90;;;;;;5107605;28;20031;-70
2022/11/15 08:37:44;;;;;;;18.40;10.15;;;12.00;99.90;;;;;;5106247;28;20023;-70
2022/11/15 08:40:10;;;;;;;16.83;10.43;;;12.00;99.90;;;;;;5113927;28;20102;-71
2022/11/15 08:42:36;;;;;;;17.83;10.50;;;11.90;99.90;;;;;;5113478;28;20070;-71
2022/11/15 08:45:02;;;;;;;14.38;9.43;;;11.90;99.90;;;;;;5106333;28;20055;-70
2022/11/15 08:47:28;;;;;;;16.20;9.65;;;11.90;99.90;;;;;;5105154;28;20027;-71
2022/11/15 08:49:54;;;;;;;13.18;8.82;;;11.80;99.90;;;;;;5108898;28;20027;-70
2022/11/15 08:52:19;;;;;;;14.38;8.38;;;11.90;99.90;;;;;;5107200;28;20464;-71
2022/11/15 08:54:45;;;;;;;15.60;8.40;;;11.80;99.90;;;;;;5105069;28;20111;-71
2022/11/15 08:57:11;;;;;;;14.77;8.48;;;11.80;99.90;;;;;;5108657;28;20028;-71
2022/11/15 08:59:37;;;;;;;11.30;7.20;;;11.80;99.90;;;;;;5094538;28;20058;-70
2022/11/15 09:02:03;;;;;;;9.57;6.20;;;11.80;99.90;;;;;;5105658;28;20028;-71
2022/11/15 09:04:29;;;;;;;11.32;6.60;;;11.80;99.90;;;;;;5106620;28;20099;-70
2022/11/15 09:06:54;;;;;;;8.75;6.72;;;11.70;99.90;;;;;;5110535;28;20035;-71
2022/11/15 09:09:20;;;;;;;7.78;5.30;;;11.80;99.90;;;;;;5105483;28;20391;-71
2022/11/15 09:11:45;;;;;;;8.57;4.60;;;11.90;99.90;;;;;;5104689;28;20020;-70
2022/11/15 09:14:12;;;;;;;8.45;3.53;;;12.00;99.90;;;;;;5111202;28;20084;-70
2022/11/15 09:16:38;;;;;;;8.93;3.38;;;11.90;99.90;;;;;;5109223;28;20023;-70
2022/11/15 09:19:03;;;;;;;5.78;2.47;;;12.00;99.90;;;;;;5102374;27;20080;-71
2022/11/15 09:21:30;;;;;;;6.78;2.45;;;12.00;99.90;;;;;;5107641;28;20436;-71
2022/11/15 09:23:55;;;;;;;6.43;2.53;;;11.90;99.90;;;;;;5110968;28;20055;-71
2022/11/15 09:26:21;;;;;;;3.65;1.60;;;12.00;99.90;;;;;;5106453;28;20521;-70
2022/11/15 09:28:47;;;;;;;6.43;1.98;;;12.00;99.90;;;;;;5108626;28;20073;-70
2022/11/15 09:31:13;;;;;;;5.85;2.55;;;12.10;99.90;;;;;;5112240;28;20040;-70
2022/11/15 09:33:39;;;;;;;6.93;2.00;;;12.10;99.90;;;;;;5101029;28;20064;-70
2022/11/15 09:36:07;;;;;;;9.20;2.00;;;12.20;99.90;;;;;;5111056;28;20126;-71
2022/11/15 09:38:33;;;;;;;5.22;2.17;;;12.20;99.90;;;;;;5102582;28;20016;-70
2022/11/15 09:41:14;;;;;;;6.28;1.88;;;12.20;99.90;;;;;;5107666;28;20429;-70
2022/11/15 09:43:51;;;;;;;4.60;2.60;;;12.20;99.90;;;;;;5102075;28;20059;-70
2022/11/15 09:46:51;;;;;;;4.72;1.90;;;12.30;99.90;;;;;;5110313;28;20024;-70
2022/11/15 09:49:17;;;;;;;5.50;2.22;;;12.30;99.90;;;;;;5075701;28;20040;-70
2022/11/15 09:51:47;;;;;;;3.83;1.80;;;12.30;99.90;;;;;;5104234;28;20056;-70
2022/11/15 09:54:51;;;;;;;5.63;1.70;;;12.30;99.90;;;;;;5103035;28;20054;-70
2022/11/15 09:57:39;;;;;;;6.45;2.08;;;12.30;99.90;;;;;;5053991;28;20039;-70
2022/11/15 10:00:45;;;;;;;3.95;1.70;;;12.30;99.90;;;;;;5036388;28;20036;-69
2022/11/15 10:03:15;;;;;;;6.22;1.70;;;12.40;99.90;;;;;;5017941;28;20584;-70
2022/11/15 10:05:45;;;;;;;3.97;2.20;;;12.40;99.90;;;;;;5087605;28;20066;-70
2022/11/15 10:08:28;;;;;;;4.22;1.45;;;12.40;99.90;;;;;;5079478;28;20024;-70
2022/11/15 10:11:00;;;;;;;6.30;1.88;;;12.30;99.90;;;;;;5101777;28;20507;-70
2022/11/15 10:13:29;;;;;;;7.07;2.10;;;12.40;99.90;;;;;;5102777;28;20020;-70
2022/11/15 10:16:10;;;;;;;7.57;1.83;;;12.50;99.90;;;;;;5103048;28;20038;-70
2022/11/15 10:19:11;;;;;;;5.75;2.08;;;12.50;99.90;;;;;;5099470;28;20028;-71
2022/11/15 10:21:48;;;;;;;5.25;1.35;;;12.60;99.90;;;;;;5066351;28;20047;-70
2022/11/15 10:24:20;;;;;;;3.83;1.70;;;12.50;99.90;;;;;;5104730;28;20019;-71
2022/11/15 10:26:49;;;;;;;7.30;1.85;;;12.50;99.90;;;;;;5101902;28;20023;-70
2022/11/15 10:29:23;;;;;;;5.82;1.98;;;12.40;99.90;;;;;;5107595;28;20069;-71
2022/11/15 10:31:49;;;;;;;7.63;1.45;;;12.40;99.90;;;;;;5106958;28;20035;-69
2022/11/15 10:34:20;;;;;;;5.47;1.10;;;12.40;99.90;;;;;;5111123;28;20088;-70
2022/11/15 10:36:57;;;;;;;3.20;1.48;;;12.40;99.90;;;;;;5103190;28;20016;-69
2022/11/15 10:39:23;;;;;;;4.63;1.60;;;12.40;99.90;;;;;;5111196;28;20112;-70
2022/11/15 10:41:48;;;;;;;6.47;1.35;;;12.40;99.90;;;;;;5105197;28;20047;-69
2022/11/15 10:44:20;;;;;;;5.13;1.65;;;12.50;99.90;;;;;;5109737;28;20024;-69
2022/11/15 10:46:54;;;;;;;11.20;2.63;;;12.60;99.90;;;;;;5109538;28;20040;-70
2022/11/15 10:49:24;;;;;;;4.15;1.80;;;12.70;99.90;;;;;;5110623;28;20024;-69
2022/11/15 10:51:56;;;;;;;5.20;1.60;;;12.70;99.90;;;;;;5107005;28;20499;-70
2022/11/15 10:54:40;;;;;;;2.88;1.65;;;12.70;99.90;;;;;;5109021;28;20519;-70
2022/11/15 10:57:30;;;;;;;7.43;1.80;;;12.70;99.90;;;;;;5102192;28;20023;-69
2022/11/15 11:00:02;;;;;;;5.15;1.45;;;12.80;99.90;;;;;;5108925;28;20490;-69
2022/11/15 11:02:36;;;;;;;3.95;1.30;;;12.80;99.90;;;;;;5098727;28;20467;-69
2022/11/15 11:05:05;;;;;;;4.63;1.25;;;12.90;99.90;;;;;;5108338;28;20031;-69
2022/11/15 11:07:33;;;;;;;7.65;1.42;;;12.90;99.90;;;;;;5088602;28;20028;-69
2022/11/15 11:10:19;;;;;;;4.70;1.48;;;12.90;99.90;;;;;;5106342;28;20022;-69
2022/11/15 11:12:44;;;;;;;5.57;1.40;;;13.00;99.90;;;;;;5104159;28;20028;-69
2022/11/15 11:15:13;;;;;;;3.20;1.35;;;13.20;99.90;;;;;;5093732;28;20035;-69
2022/11/15 11:17:41;;;;;;;5.07;1.38;;;13.20;99.90;;;;;;5110642;28;20452;-69
2022/11/15 11:20:31;;;;;;;6.75;2.20;;;13.20;99.90;;;;;;5104661;28;20147;-69
2022/11/15 11:23:03;;;;;;;5.43;1.70;;;13.10;99.90;;;;;;5112135;28;20031;-69
2022/11/15 11:25:39;;;;;;;7.15;1.45;;;13.10;99.90;;;;;;5107049;28;20030;-69
2022/11/15 11:28:55;;;;;;;10.80;1.42;;;13.20;99.90;;;;;;5110914;28;20034;-69
2022/11/15 11:31:56;;;;;;;9.48;1.38;;;13.20;99.90;;;;;;4987705;28;20041;-70
2022/11/15 11:34:31;;;;;;;4.28;1.10;;;13.30;99.90;;;;;;5109770;28;20055;-70
2022/11/15 11:37:33;;;;;;;5.57;1.40;;;13.30;99.90;;;;;;5094276;28;20058;-69
2022/11/15 11:40:12;;;;;;;3.35;1.10;;;13.30;99.90;;;;;;5114248;28;20020;-73
2022/11/15 11:42:58;;;;;;;7.75;3.15;;;13.30;99.90;;;;;;5106251;28;20020;-69
2022/11/15 11:45:55;;;;;;;3.97;1.13;;;13.30;99.90;;;;;;5113814;28;20016;-69
2022/11/15 11:48:43;;;;;;;3.20;1.23;;;13.30;99.90;;;;;;5105393;28;20032;-70
2022/11/15 11:51:33;;;;;;;5.38;1.58;;;13.20;99.90;;;;;;5103384;28;20051;-70
2022/11/15 11:54:12;;;;;;;9.05;1.55;;;13.20;99.90;;;;;;5112672;28;20111;-69
2022/11/15 11:56:41;;;;;;;4.88;1.00;;;13.30;99.90;;;;;;5105021;28;20024;-69
2022/11/15 11:59:19;;;;;;;4.88;1.40;;;13.30;99.90;;;;;;5115224;28;20028;-69
2022/11/15 12:01:45;;;;;;;5.45;1.55;;;13.40;99.90;;;;;;5112772;28;20020;-69
2022/11/15 12:04:34;;;;;;;6.20;1.30;;;13.40;99.90;;;;;;5108586;28;20028;-69
2022/11/15 12:07:24;;;;;;;3.42;1.20;;;13.50;99.90;;;;;;5096644;28;20102;-69
2022/11/15 12:10:01;;;;;;;4.57;1.40;;;13.50;99.90;;;;;;5114550;28;20027;-70
2022/11/15 12:13:04;;;;;;;5.20;1.48;;;13.50;99.90;;;;;;5114068;28;20024;-69
2022/11/15 12:15:45;;;;;;;5.80;1.45;;;13.60;99.90;;;;;;5110209;28;20062;-69
2022/11/15 12:18:16;;;;;;;3.42;1.38;;;13.50;99.90;;;;;;5104005;28;20035;-68
2022/11/15 12:21:00;;;;;;;3.92;1.00;;;13.60;99.90;;;;;;5103600;28;20032;-69
2022/11/15 12:23:38;;;;;;;6.32;1.20;;;13.60;99.90;;;;;;5110206;28;20039;-69
2022/11/15 12:26:06;;;;;;;4.45;1.17;;;13.60;99.90;;;;;;5102437;28;20032;-69
2022/11/15 12:28:49;;;;;;;3.85;1.20;;;13.60;99.90;;;;;;5109414;28;20016;-70
2022/11/15 12:31:24;;;;;;;4.57;1.17;;;13.60;99.90;;;;;;5100807;28;20485;-69
2022/11/15 12:33:54;;;;;;;2.47;0.85;;;13.60;99.90;;;;;;5105758;28;20027;-69
2022/11/15 12:36:20;;;;;;;5.30;1.20;;;13.50;99.90;;;;;;5105537;28;20054;-68
2022/11/15 12:38:56;;;;;;;4.35;1.10;;;13.50;99.90;;;;;;5108579;28;20476;-69
2022/11/15 12:41:28;;;;;;;2.70;1.10;;;13.40;99.90;;;;;;5110856;28;20027;-69
2022/11/15 12:43:54;;;;;;;;;;;13.50;99.90;;;;;;5112144;28;20012;-71
2022/11/15 12:46:22;;;;;;;4.40;1.15;;;13.50;99.90;;;;;;5104396;28;19912;-70
2022/11/15 12:48:51;;;;;;;3.38;1.13;;;13.50;99.90;;;;;;5102750;28;20049;-70
2022/11/15 12:51:20;;;;;;;5.03;1.02;;;13.50;99.90;;;;;;5103301;28;20028;-70
2022/11/15 12:53:46;;;;;;;6.95;1.52;;;13.50;99.90;;;;;;5112406;28;20098;-69
2022/11/15 12:56:17;;;;;;;3.85;1.48;;;13.50;99.90;;;;;;5102766;28;20111;-69
2022/11/15 12:58:59;;;;;;;5.00;1.40;;;13.60;99.90;;;;;;5103064;28;20043;-69
2022/11/15 13:01:33;;;;;;;4.03;0.93;;;13.60;99.90;;;;;;5107043;28;20054;-69